Janice Tyson — WDC8442 — position and weather

sailwx.info

Track history (hours):
 
Tides and Currents Weather Stations Pressure Air Temp Water Temp Dewpoint Dewpoint Depression Visibility Wind Speed Wind Dir Waves Ship Positions

Janice Tyson

Owner: Florida Marine, LLC, Mandeville, LA. More information available from US FCC via Universal Licensing System and Coast Guard Vessel Documentation Center.

Last reported at 2017-Nov-24 05:30 UTC. Time now 2017-Nov-24 05:52 UTC.
Position N 30°11' W 093°19'.

Length 27 m; draft 3 m.

Type: Towing. MMSI: 367087180.

Date/timePositionNaut miles runAvg speedWind from/ knotsBaromVisibWave heightAir tempDewpointWater temp
2017-Nov-24 05:30N 30°11' W 093°19'0 0.0
2017-Nov-24 05:00N 30°11' W 093°19'0 0.0
2017-Nov-24 04:30N 30°11' W 093°19'0 0.0
2017-Nov-24 04:00N 30°11' W 093°19'0 0.0
2017-Nov-24 03:30N 30°11' W 093°19'0 0.0
2017-Nov-24 03:00N 30°11' W 093°19'0 0.0
2017-Nov-24 02:30N 30°11' W 093°19'0 0.0
2017-Nov-24 02:00N 30°11' W 093°19'0 0.0
2017-Nov-24 01:30N 30°11' W 093°19'0 0.0
2017-Nov-24 01:00N 30°11' W 093°19'0 0.0
2017-Nov-24 00:30N 30°11' W 093°19'0 0.0
2017-Nov-24 00:00N 30°11' W 093°19'0 0.8
2017-Nov-23 23:30N 30°11' W 093°19'2 4.4
2017-Nov-23 23:00N 30°09' W 093°20'2 4.7
2017-Nov-23 22:30N 30°06' W 093°20'1 2.4
2017-Nov-23 22:00N 30°05' W 093°20'1 1.3
2017-Nov-23 21:30N 30°05' W 093°20'0 0.0
2017-Nov-23 21:00N 30°05' W 093°20'0 0.0
2017-Nov-23 20:30N 30°05' W 093°20'0 0.0
2017-Nov-23 20:00N 30°05' W 093°20'0 0.0
2017-Nov-23 19:30N 30°05' W 093°20'0 0.0
2017-Nov-23 19:00N 30°05' W 093°20'0 0.0
2017-Nov-23 18:30N 30°05' W 093°20'0 0.0
2017-Nov-23 18:00N 30°05' W 093°20'0 0.0
2017-Nov-23 17:30N 30°05' W 093°20'0 0.0
2017-Nov-23 17:00N 30°05' W 093°20'0 0.0
2017-Nov-23 16:30N 30°05' W 093°20'0 0.0
2017-Nov-23 16:00N 30°05' W 093°20'0 0.0
2017-Nov-23 15:30N 30°05' W 093°20'0 0.0
2017-Nov-23 15:00N 30°05' W 093°20'0 0.0
2017-Nov-23 14:30N 30°05' W 093°20'0 0.0
2017-Nov-23 14:00N 30°05' W 093°20'0 0.0
2017-Nov-23 13:30N 30°05' W 093°20'0 0.0
2017-Nov-23 13:00N 30°05' W 093°20'0 0.0
2017-Nov-23 12:30N 30°05' W 093°20'0 0.0
2017-Nov-23 12:00N 30°05' W 093°20'0 0.0
2017-Nov-23 11:30N 30°05' W 093°20'0 0.0
2017-Nov-23 11:00N 30°05' W 093°20'0 0.0
2017-Nov-23 10:30N 30°05' W 093°20'0 0.0
2017-Nov-23 10:00N 30°05' W 093°20'0 0.0
2017-Nov-23 09:30N 30°05' W 093°20'0 0.0
2017-Nov-23 09:00N 30°05' W 093°20'0 0.0
2017-Nov-23 08:30N 30°05' W 093°20'0 0.0
2017-Nov-23 08:00N 30°05' W 093°20'0 0.0
2017-Nov-23 07:30N 30°05' W 093°20'0 0.0
2017-Nov-23 07:00N 30°05' W 093°20'0 0.0
2017-Nov-23 06:30N 30°05' W 093°20'0 0.0
2017-Nov-23 06:00N 30°05' W 093°20'0 0.0
2017-Nov-23 05:30N 30°05' W 093°20'0 0.0
2017-Nov-23 05:00N 30°05' W 093°20'0 0.0
2017-Nov-23 04:30N 30°05' W 093°20'0 0.0
2017-Nov-23 04:00N 30°05' W 093°20'0 0.0
2017-Nov-23 03:30N 30°05' W 093°20'0 0.0
2017-Nov-23 03:00N 30°05' W 093°20'0 0.0
2017-Nov-23 02:30N 30°05' W 093°20'0 0.0
2017-Nov-23 02:00N 30°05' W 093°20'0 0.0
2017-Nov-23 01:30N 30°05' W 093°20'0 0.0
2017-Nov-23 01:00N 30°05' W 093°20'0 0.0
2017-Nov-23 00:30N 30°05' W 093°20'0 0.0
2017-Nov-23 00:00N 30°05' W 093°20'0 0.0
2017-Nov-22 23:30N 30°05' W 093°20'0 0.0
2017-Nov-22 23:00N 30°05' W 093°20'0 0.0
2017-Nov-22 22:30N 30°05' W 093°20'0 0.0
2017-Nov-22 22:00N 30°05' W 093°20'0 0.0
2017-Nov-22 21:30N 30°05' W 093°20'0 0.0
2017-Nov-22 21:00N 30°05' W 093°20'0 0.0
2017-Nov-22 20:30N 30°05' W 093°20'0 0.0
2017-Nov-22 20:00N 30°05' W 093°20'0 0.0
2017-Nov-22 19:30N 30°05' W 093°20'  
2017-Nov-16 07:55N 29°25' W 094°50'4 9.4
2017-Nov-16 07:30N 29°29' W 094°52'5 9.4
2017-Nov-16 07:00N 29°33' W 094°54'5 9.4
2017-Nov-16 06:30N 29°37' W 094°57'5 9.7
2017-Nov-16 06:00N 29°41' W 094°59'4 8.7
2017-Nov-16 05:30N 29°44' W 095°03'3 6.5
2017-Nov-16 04:59N 29°46' W 095°06'0 0.4
2017-Nov-16 04:12N 29°46' W 095°07'0 0.3
2017-Nov-16 03:46N 29°46' W 095°07'1 0.3
2017-Nov-15 22:49N 29°45' W 095°06'2 6.5
2017-Nov-15 22:30N 29°44' W 095°09'3 5.7
2017-Nov-15 22:00N 29°44' W 095°12'1 2.7
2017-Nov-15 21:28N 29°44' W 095°13'0 0.1
2017-Nov-15 21:00N 29°44' W 095°13'0 0.0
2017-Nov-15 20:30N 29°44' W 095°13'0 0.0
2017-Nov-15 20:00N 29°44' W 095°13'0 0.0
2017-Nov-15 19:30N 29°44' W 095°13'0 0.0
2017-Nov-15 18:59N 29°44' W 095°13'0 0.0
2017-Nov-15 18:23N 29°44' W 095°13'0 0.0
2017-Nov-15 18:00N 29°44' W 095°13'0 0.0
2017-Nov-15 17:30N 29°44' W 095°13'0 0.0
2017-Nov-15 17:00N 29°44' W 095°13'0 0.0
2017-Nov-15 16:30N 29°44' W 095°13'0 0.0
2017-Nov-15 15:59N 29°44' W 095°13'0 0.0
2017-Nov-15 15:30N 29°44' W 095°13'0 0.0
2017-Nov-15 15:00N 29°44' W 095°13'0 0.0
2017-Nov-15 14:30N 29°44' W 095°13'0 0.0
2017-Nov-15 14:00N 29°44' W 095°13'0 0.0
2017-Nov-15 13:30N 29°44' W 095°13'0 0.0
2017-Nov-15 13:00N 29°44' W 095°13'0 0.0
2017-Nov-15 12:26N 29°44' W 095°13'0 0.0
2017-Nov-15 12:00N 29°44' W 095°13'0 0.0
2017-Nov-15 11:27N 29°44' W 095°13'0 0.0
2017-Nov-15 10:55N 29°44' W 095°13'0 0.0
2017-Nov-15 10:28N 29°44' W 095°13'0 0.0
2017-Nov-15 09:54N 29°44' W 095°13'0 0.0
2017-Nov-15 09:15N 29°44' W 095°13'0 0.0
2017-Nov-15 08:59N 29°44' W 095°13'0 0.0
2017-Nov-15 08:30N 29°44' W 095°13'0 0.0
2017-Nov-15 07:58N 29°44' W 095°13'0 0.0
2017-Nov-15 07:30N 29°44' W 095°13'0 0.1
2017-Nov-15 07:00N 29°44' W 095°13'0 0.0
2017-Nov-15 06:30N 29°44' W 095°13'0 0.0
2017-Nov-15 06:00N 29°44' W 095°13'0 0.0
2017-Nov-15 05:29N 29°44' W 095°13'0 0.0
2017-Nov-15 05:00N 29°44' W 095°13'0 0.0
2017-Nov-15 04:30N 29°44' W 095°13'0 0.0
2017-Nov-15 04:00N 29°44' W 095°13'0 0.0
2017-Nov-15 03:30N 29°44' W 095°13'2 3.1
2017-Nov-15 03:00N 29°45' W 095°12'3 5.5
2017-Nov-15 02:30N 29°44' W 095°09'3 5.7
2017-Nov-15 01:59N 29°45' W 095°06'2 4.3
2017-Nov-15 01:27N 29°47' W 095°04'0 0.8
2017-Nov-15 01:00N 29°47' W 095°04'0 0.0
2017-Nov-15 00:30N 29°47' W 095°04'2 0.6
2017-Nov-14 21:33N 29°47' W 095°06'1 0.1
2017-Nov-14 13:33N 29°47' W 095°04'1 6.7
2017-Nov-14 13:28N 29°46' W 095°05'2 0.9
2017-Nov-14 11:13N 29°46' W 095°07'0 0.1
2017-Nov-14 11:00N 29°46' W 095°07'  
Track history (hours):
 
Tides and Currents Weather Stations Pressure Air Temp Water Temp Dewpoint Dewpoint Depression Visibility Wind Speed Wind Dir Waves Ship Positions

Janice Tyson

Owner: Florida Marine, LLC, Mandeville, LA. More information available from US FCC via Universal Licensing System and Coast Guard Vessel Documentation Center.

Last reported at 2017-Nov-24 05:30 UTC. Time now 2017-Nov-24 05:52 UTC.
Position N 30°11' W 093°19'.

Length 27 m; draft 3 m.

Type: Towing. MMSI: 367087180.

Date/timePositionNaut miles runAvg speedWind from/ knotsBaromVisibWave heightAir tempDewpointWater temp
2017-Nov-24 05:30N 30°11' W 093°19'0 0.0
2017-Nov-24 05:00N 30°11' W 093°19'0 0.0
2017-Nov-24 04:30N 30°11' W 093°19'0 0.0
2017-Nov-24 04:00N 30°11' W 093°19'0 0.0
2017-Nov-24 03:30N 30°11' W 093°19'0 0.0
2017-Nov-24 03:00N 30°11' W 093°19'0 0.0
2017-Nov-24 02:30N 30°11' W 093°19'0 0.0
2017-Nov-24 02:00N 30°11' W 093°19'0 0.0
2017-Nov-24 01:30N 30°11' W 093°19'0 0.0
2017-Nov-24 01:00N 30°11' W 093°19'0 0.0
2017-Nov-24 00:30N 30°11' W 093°19'0 0.0
2017-Nov-24 00:00N 30°11' W 093°19'0 0.8
2017-Nov-23 23:30N 30°11' W 093°19'2 4.4
2017-Nov-23 23:00N 30°09' W 093°20'2 4.7
2017-Nov-23 22:30N 30°06' W 093°20'1 2.4
2017-Nov-23 22:00N 30°05' W 093°20'1 1.3
2017-Nov-23 21:30N 30°05' W 093°20'0 0.0
2017-Nov-23 21:00N 30°05' W 093°20'0 0.0
2017-Nov-23 20:30N 30°05' W 093°20'0 0.0
2017-Nov-23 20:00N 30°05' W 093°20'0 0.0
2017-Nov-23 19:30N 30°05' W 093°20'0 0.0
2017-Nov-23 19:00N 30°05' W 093°20'0 0.0
2017-Nov-23 18:30N 30°05' W 093°20'0 0.0
2017-Nov-23 18:00N 30°05' W 093°20'0 0.0
2017-Nov-23 17:30N 30°05' W 093°20'0 0.0
2017-Nov-23 17:00N 30°05' W 093°20'0 0.0
2017-Nov-23 16:30N 30°05' W 093°20'0 0.0
2017-Nov-23 16:00N 30°05' W 093°20'0 0.0
2017-Nov-23 15:30N 30°05' W 093°20'0 0.0
2017-Nov-23 15:00N 30°05' W 093°20'0 0.0
2017-Nov-23 14:30N 30°05' W 093°20'0 0.0
2017-Nov-23 14:00N 30°05' W 093°20'0 0.0
2017-Nov-23 13:30N 30°05' W 093°20'0 0.0
2017-Nov-23 13:00N 30°05' W 093°20'0 0.0
2017-Nov-23 12:30N 30°05' W 093°20'0 0.0
2017-Nov-23 12:00N 30°05' W 093°20'0 0.0
2017-Nov-23 11:30N 30°05' W 093°20'0 0.0
2017-Nov-23 11:00N 30°05' W 093°20'0 0.0
2017-Nov-23 10:30N 30°05' W 093°20'0 0.0
2017-Nov-23 10:00N 30°05' W 093°20'0 0.0
2017-Nov-23 09:30N 30°05' W 093°20'0 0.0
2017-Nov-23 09:00N 30°05' W 093°20'0 0.0
2017-Nov-23 08:30N 30°05' W 093°20'0 0.0
2017-Nov-23 08:00N 30°05' W 093°20'0 0.0
2017-Nov-23 07:30N 30°05' W 093°20'0 0.0
2017-Nov-23 07:00N 30°05' W 093°20'0 0.0
2017-Nov-23 06:30N 30°05' W 093°20'0 0.0
2017-Nov-23 06:00N 30°05' W 093°20'0 0.0
2017-Nov-23 05:30N 30°05' W 093°20'0 0.0
2017-Nov-23 05:00N 30°05' W 093°20'0 0.0
2017-Nov-23 04:30N 30°05' W 093°20'0 0.0
2017-Nov-23 04:00N 30°05' W 093°20'0 0.0
2017-Nov-23 03:30N 30°05' W 093°20'0 0.0
2017-Nov-23 03:00N 30°05' W 093°20'0 0.0
2017-Nov-23 02:30N 30°05' W 093°20'0 0.0
2017-Nov-23 02:00N 30°05' W 093°20'0 0.0
2017-Nov-23 01:30N 30°05' W 093°20'0 0.0
2017-Nov-23 01:00N 30°05' W 093°20'0 0.0
2017-Nov-23 00:30N 30°05' W 093°20'0 0.0
2017-Nov-23 00:00N 30°05' W 093°20'0 0.0
2017-Nov-22 23:30N 30°05' W 093°20'0 0.0
2017-Nov-22 23:00N 30°05' W 093°20'0 0.0
2017-Nov-22 22:30N 30°05' W 093°20'0 0.0
2017-Nov-22 22:00N 30°05' W 093°20'0 0.0
2017-Nov-22 21:30N 30°05' W 093°20'0 0.0
2017-Nov-22 21:00N 30°05' W 093°20'0 0.0
2017-Nov-22 20:30N 30°05' W 093°20'0 0.0
2017-Nov-22 20:00N 30°05' W 093°20'0 0.0
2017-Nov-22 19:30N 30°05' W 093°20'  
2017-Nov-16 07:55N 29°25' W 094°50'4 9.4
2017-Nov-16 07:30N 29°29' W 094°52'5 9.4
2017-Nov-16 07:00N 29°33' W 094°54'5 9.4
2017-Nov-16 06:30N 29°37' W 094°57'5 9.7
2017-Nov-16 06:00N 29°41' W 094°59'4 8.7
2017-Nov-16 05:30N 29°44' W 095°03'3 6.5
2017-Nov-16 04:59N 29°46' W 095°06'0 0.4
2017-Nov-16 04:12N 29°46' W 095°07'0 0.3
2017-Nov-16 03:46N 29°46' W 095°07'1 0.3
2017-Nov-15 22:49N 29°45' W 095°06'2 6.5
2017-Nov-15 22:30N 29°44' W 095°09'3 5.7
2017-Nov-15 22:00N 29°44' W 095°12'1 2.7
2017-Nov-15 21:28N 29°44' W 095°13'0 0.1
2017-Nov-15 21:00N 29°44' W 095°13'0 0.0
2017-Nov-15 20:30N 29°44' W 095°13'0 0.0
2017-Nov-15 20:00N 29°44' W 095°13'0 0.0
2017-Nov-15 19:30N 29°44' W 095°13'0 0.0
2017-Nov-15 18:59N 29°44' W 095°13'0 0.0
2017-Nov-15 18:23N 29°44' W 095°13'0 0.0
2017-Nov-15 18:00N 29°44' W 095°13'0 0.0
2017-Nov-15 17:30N 29°44' W 095°13'0 0.0
2017-Nov-15 17:00N 29°44' W 095°13'0 0.0
2017-Nov-15 16:30N 29°44' W 095°13'0 0.0
2017-Nov-15 15:59N 29°44' W 095°13'0 0.0
2017-Nov-15 15:30N 29°44' W 095°13'0 0.0
2017-Nov-15 15:00N 29°44' W 095°13'0 0.0
2017-Nov-15 14:30N 29°44' W 095°13'0 0.0
2017-Nov-15 14:00N 29°44' W 095°13'0 0.0
2017-Nov-15 13:30N 29°44' W 095°13'0 0.0
2017-Nov-15 13:00N 29°44' W 095°13'0 0.0
2017-Nov-15 12:26N 29°44' W 095°13'0 0.0
2017-Nov-15 12:00N 29°44' W 095°13'0 0.0
2017-Nov-15 11:27N 29°44' W 095°13'0 0.0
2017-Nov-15 10:55N 29°44' W 095°13'0 0.0
2017-Nov-15 10:28N 29°44' W 095°13'0 0.0
2017-Nov-15 09:54N 29°44' W 095°13'0 0.0
2017-Nov-15 09:15N 29°44' W 095°13'0 0.0
2017-Nov-15 08:59N 29°44' W 095°13'0 0.0
2017-Nov-15 08:30N 29°44' W 095°13'0 0.0
2017-Nov-15 07:58N 29°44' W 095°13'0 0.0
2017-Nov-15 07:30N 29°44' W 095°13'0 0.1
2017-Nov-15 07:00N 29°44' W 095°13'0 0.0
2017-Nov-15 06:30N 29°44' W 095°13'0 0.0
2017-Nov-15 06:00N 29°44' W 095°13'0 0.0
2017-Nov-15 05:29N 29°44' W 095°13'0 0.0
2017-Nov-15 05:00N 29°44' W 095°13'0 0.0
2017-Nov-15 04:30N 29°44' W 095°13'0 0.0
2017-Nov-15 04:00N 29°44' W 095°13'0 0.0
2017-Nov-15 03:30N 29°44' W 095°13'2 3.1
2017-Nov-15 03:00N 29°45' W 095°12'3 5.5
2017-Nov-15 02:30N 29°44' W 095°09'3 5.7
2017-Nov-15 01:59N 29°45' W 095°06'2 4.3
2017-Nov-15 01:27N 29°47' W 095°04'0 0.8
2017-Nov-15 01:00N 29°47' W 095°04'0 0.0
2017-Nov-15 00:30N 29°47' W 095°04'2 0.6
2017-Nov-14 21:33N 29°47' W 095°06'1 0.1
2017-Nov-14 13:33N 29°47' W 095°04'1 6.7
2017-Nov-14 13:28N 29°46' W 095°05'2 0.9
2017-Nov-14 11:13N 29°46' W 095°07'0 0.1
2017-Nov-14 11:00N 29°46' W 095°07'  

Dump ship's entire track history